Time;durP1;ratioP1;P1;durP2;ratioP2;P2;SDS_P1;SDS_P2;PMS_P1;PMS_P2;Temp;Humidity;BMP_temperature;BMP_pressure;BME280_temperature;BME280_humidity;BME280_pressure;Samples;Min_cycle;Max_cycle;Signal;HPM_P1;HPM_P2
2022/12/30 00:00:32;;;;;;;5.07;1.40;;;9.10;99.90;;;;;;4956543;28;20209;-77
2022/12/30 00:02:58;;;;;;;5.00;2.00;;;9.10;99.90;;;;;;4988673;28;20668;-77
2022/12/30 00:05:23;;;;;;;4.33;0.90;;;9.00;99.90;;;;;;4989744;28;20166;-77
2022/12/30 00:07:49;;;;;;;6.37;1.50;;;9.00;99.90;;;;;;4990392;28;20175;-77
2022/12/30 00:10:15;;;;;;;3.70;1.00;;;9.00;99.90;;;;;;4981634;28;20191;-77
2022/12/30 00:35:20;;;;;;;3.10;1.00;;;8.80;99.90;;;;;;4968847;28;20207;-77
2022/12/30 00:37:46;;;;;;;6.43;1.80;;;8.80;99.90;;;;;;4953068;28;20180;-77
2022/12/30 00:40:12;;;;;;;9.97;1.10;;;8.80;99.90;;;;;;4969142;28;20773;-77
2022/12/30 00:45:24;;;;;;;6.75;1.60;;;8.80;99.90;;;;;;4977722;28;20179;-77
2022/12/30 00:47:50;;;;;;;3.65;1.10;;;8.70;99.90;;;;;;4980913;28;20184;-77
2022/12/30 00:58:29;;;;;;;6.00;1.15;;;8.60;99.90;;;;;;4988316;28;20178;-78
2022/12/30 01:00:56;;;;;;;3.77;1.00;;;8.60;99.90;;;;;;4972412;28;20748;-77
2022/12/30 01:03:21;;;;;;;3.90;1.08;;;8.60;99.90;;;;;;4991972;28;20203;-77
2022/12/30 01:05:47;;;;;;;2.90;1.00;;;8.60;99.90;;;;;;4993769;28;20597;-78
2022/12/30 01:08:13;;;;;;;1.90;0.80;;;8.60;99.90;;;;;;4993437;28;20171;-78
2022/12/30 01:10:39;;;;;;;3.13;1.00;;;8.60;99.90;;;;;;4975922;28;20175;-77
2022/12/30 01:13:06;;;;;;;5.15;1.60;;;8.60;99.90;;;;;;4992692;28;20195;-77
2022/12/30 01:15:31;;;;;;;6.22;1.50;;;8.60;99.90;;;;;;4992298;28;20171;-77
2022/12/30 01:17:57;;;;;;;3.33;0.93;;;8.60;99.90;;;;;;4993369;28;20181;-77
2022/12/30 01:20:23;;;;;;;15.90;1.80;;;8.60;99.90;;;;;;4975678;28;20337;-77
2022/12/30 01:22:49;;;;;;;3.53;1.10;;;8.50;99.90;;;;;;4976349;28;20195;-77
2022/12/30 01:25:14;;;;;;;3.30;1.20;;;8.60;99.90;;;;;;4992668;28;20617;-77
2022/12/30 01:27:40;;;;;;;2.43;0.90;;;8.50;99.90;;;;;;4993243;28;20167;-78
2022/12/30 01:30:06;;;;;;;7.90;0.90;;;8.50;99.90;;;;;;4993007;28;20214;-77
2022/12/30 01:32:35;;;;;;;8.23;1.13;;;8.50;99.90;;;;;;4975434;28;20690;-77
2022/12/30 01:35:00;;;;;;;4.35;1.13;;;8.50;99.90;;;;;;4974810;28;20178;-77
2022/12/30 01:37:26;;;;;;;4.03;0.90;;;8.40;99.90;;;;;;4975627;28;20184;-77
2022/12/30 01:39:52;;;;;;;3.70;1.00;;;8.40;99.90;;;;;;4992699;28;20203;-77
2022/12/30 01:42:29;;;;;;;5.93;1.40;;;8.40;99.90;;;;;;4992786;28;20178;-77
2022/12/30 01:45:13;;;;;;;7.50;1.52;;;8.30;99.90;;;;;;4974820;28;20167;-77
2022/12/30 01:47:54;;;;;;;6.15;1.30;;;8.30;99.90;;;;;;4991607;28;20262;-77
2022/12/30 01:50:44;;;;;;;5.03;0.95;;;8.30;99.90;;;;;;4975242;28;20663;-77
2022/12/30 01:53:20;;;;;;;5.50;1.10;;;8.30;99.90;;;;;;4991893;28;20249;-77
2022/12/30 01:55:48;;;;;;;5.53;1.10;;;8.30;99.90;;;;;;5007561;28;20206;-77
2022/12/30 01:58:26;;;;;;;1.92;0.90;;;8.20;99.90;;;;;;5007823;28;20178;-77
2022/12/30 02:00:51;;;;;;;4.22;0.80;;;8.20;99.90;;;;;;5006670;28;20213;-76
2022/12/30 02:03:18;;;;;;;7.00;1.73;;;8.20;99.90;;;;;;4961965;28;20215;-77
2022/12/30 02:05:46;;;;;;;7.25;1.38;;;8.20;99.90;;;;;;4969713;28;20190;-76
2022/12/30 02:08:16;;;;;;;4.13;1.20;;;8.20;99.90;;;;;;4974687;28;20179;-76
2022/12/30 02:10:47;;;;;;;4.03;1.10;;;8.10;99.90;;;;;;4975013;28;20660;-76
2022/12/30 02:13:15;;;;;;;5.30;1.10;;;8.10;99.90;;;;;;4989628;28;20598;-77
2022/12/30 02:15:54;;;;;;;6.22;1.00;;;8.10;99.90;;;;;;4974871;28;20712;-77
2022/12/30 02:18:40;;;;;;;5.55;1.40;;;8.10;99.90;;;;;;4990902;28;20186;-76
2022/12/30 02:21:36;;;;;;;2.33;0.98;;;8.00;99.90;;;;;;4964060;28;20222;-76
2022/12/30 02:24:34;;;;;;;7.85;1.25;;;8.00;99.90;;;;;;4958261;28;20195;-77
2022/12/30 02:27:31;;;;;;;5.53;1.23;;;7.90;99.90;;;;;;4990793;28;20210;-76
2022/12/30 02:30:15;;;;;;;5.40;1.30;;;7.90;99.90;;;;;;4991068;28;20178;-76
2022/12/30 02:32:51;;;;;;;6.80;0.95;;;7.90;99.90;;;;;;4991421;28;20253;-76
2022/12/30 02:35:27;;;;;;;6.93;1.00;;;7.90;99.90;;;;;;4974195;28;20820;-77
2022/12/30 02:38:03;;;;;;;3.55;0.88;;;7.80;99.90;;;;;;4991974;28;20175;-77
2022/12/30 02:46:17;;;;;;;6.95;1.00;;;7.90;99.90;;;;;;4990728;28;20266;-78
2022/12/30 02:48:47;;;;;;;3.55;1.10;;;7.90;99.90;;;;;;4991813;28;20202;-77
2022/12/30 02:53:59;;;;;;;4.00;1.20;;;7.90;99.90;;;;;;4991059;28;20602;-77
2022/12/30 02:56:25;;;;;;;3.30;1.20;;;7.90;99.90;;;;;;4958179;28;20175;-77
2022/12/30 03:03:57;;;;;;;6.30;1.23;;;7.90;99.90;;;;;;4991449;28;20720;-76
2022/12/30 03:05:23;;;;;;;5.25;1.98;;;7.90;99.90;;;;;;4989502;28;20237;-77
2022/12/30 03:08:06;;;;;;;2.60;1.50;;;7.80;99.90;;;;;;4974054;28;20181;-77
2022/12/30 03:11:40;;;;;;;6.13;1.30;;;7.80;99.90;;;;;;4957810;28;20186;-77
2022/12/30 03:14:01;;;;;;;4.47;1.20;;;7.80;99.90;;;;;;4965705;28;20218;-77
2022/12/30 03:16:27;;;;;;;3.80;1.33;;;7.80;99.90;;;;;;4991309;28;20583;-77
2022/12/30 03:18:53;;;;;;;5.13;1.20;;;7.80;99.90;;;;;;4991058;28;20206;-77
2022/12/30 03:21:22;;;;;;;5.10;1.00;;;7.70;99.90;;;;;;4990825;28;20179;-77
2022/12/30 03:29:26;;;;;;;4.80;1.08;;;7.70;99.90;;;;;;4973560;28;20652;-77
2022/12/30 03:31:54;;;;;;;4.22;1.45;;;7.60;99.90;;;;;;4973041;28;20231;-77
2022/12/30 03:34:20;;;;;;;6.18;1.42;;;7.60;99.90;;;;;;4972971;28;20317;-77
2022/12/30 03:36:50;;;;;;;2.90;0.90;;;7.60;99.90;;;;;;4990992;28;20175;-77
2022/12/30 03:39:25;;;;;;;3.88;1.13;;;7.60;99.90;;;;;;4992395;28;20232;-77
2022/12/30 03:41:52;;;;;;;6.30;1.60;;;7.60;99.90;;;;;;4989664;28;20257;-76
2022/12/30 03:44:19;;;;;;;4.22;1.10;;;7.60;99.90;;;;;;4957046;28;20285;-77
2022/12/30 03:46:46;;;;;;;6.07;1.30;;;7.60;99.90;;;;;;4990656;28;20163;-77
2022/12/30 03:49:12;;;;;;;5.65;1.55;;;7.50;99.90;;;;;;4990696;28;20269;-77
2022/12/30 03:51:38;;;;;;;6.75;1.50;;;7.60;99.90;;;;;;4990054;28;20582;-77
2022/12/30 03:54:04;;;;;;;6.10;1.30;;;7.50;99.90;;;;;;4956443;28;20214;-76
2022/12/30 03:56:29;;;;;;;6.60;1.83;;;7.50;99.90;;;;;;4956829;28;20191;-77
2022/12/30 03:58:55;;;;;;;6.43;2.10;;;7.50;99.90;;;;;;4973220;28;20174;-77
2022/12/30 04:01:21;;;;;;;4.77;1.00;;;7.60;99.90;;;;;;4990396;28;20225;-77
2022/12/30 04:03:46;;;;;;;5.50;1.10;;;7.50;99.90;;;;;;4988267;28;20859;-77
2022/12/30 04:06:12;;;;;;;9.00;1.33;;;7.60;99.90;;;;;;4990548;28;20597;-77
2022/12/30 04:08:38;;;;;;;6.07;1.47;;;7.60;99.90;;;;;;4972762;28;20698;-76
2022/12/30 04:11:04;;;;;;;7.10;1.17;;;7.60;99.90;;;;;;4976225;28;20193;-77
2022/12/30 04:13:30;;;;;;;3.53;1.40;;;7.60;99.90;;;;;;4988168;28;20614;-77
2022/12/30 04:15:56;;;;;;;6.20;1.33;;;7.60;99.90;;;;;;4972937;28;20182;-76
2022/12/30 04:18:21;;;;;;;4.43;1.13;;;7.60;99.90;;;;;;4972423;28;20583;-77
2022/12/30 04:20:47;;;;;;;6.93;2.20;;;7.60;99.90;;;;;;4990163;28;20687;-76
2022/12/30 04:23:14;;;;;;;6.10;1.43;;;7.60;99.90;;;;;;4989212;28;20840;-76
2022/12/30 04:25:39;;;;;;;6.25;1.27;;;7.60;99.90;;;;;;4990077;28;20575;-77
2022/12/30 04:28:05;;;;;;;8.20;1.50;;;7.60;99.90;;;;;;4956475;28;20174;-77
2022/12/30 04:30:32;;;;;;;9.03;1.73;;;7.60;99.90;;;;;;4990235;28;20210;-76
2022/12/30 04:32:57;;;;;;;5.57;1.75;;;7.60;99.90;;;;;;4989548;28;20610;-76
2022/12/30 04:35:23;;;;;;;3.30;1.10;;;7.60;99.90;;;;;;4989308;28;20225;-76
2022/12/30 04:37:49;;;;;;;6.70;1.27;;;7.60;99.90;;;;;;4990002;28;20171;-76
2022/12/30 04:40:16;;;;;;;8.52;1.40;;;7.60;99.90;;;;;;4988532;28;20217;-76
2022/12/30 04:42:41;;;;;;;5.10;1.27;;;7.60;99.90;;;;;;4972119;28;20194;-76
2022/12/30 04:45:08;;;;;;;10.77;1.73;;;7.60;99.90;;;;;;4971875;28;20167;-76
2022/12/30 04:47:33;;;;;;;5.90;1.50;;;7.60;99.90;;;;;;4956213;28;20530;-77
2022/12/30 04:49:59;;;;;;;7.03;1.47;;;7.60;99.90;;;;;;4957720;28;20179;-80
2022/12/30 04:52:25;;;;;;;4.57;1.37;;;7.60;99.90;;;;;;4999693;28;20174;-79
2022/12/30 04:54:50;;;;;;;7.37;1.73;;;7.60;99.90;;;;;;4992218;28;20210;-80
2022/12/30 04:57:16;;;;;;;4.70;1.20;;;7.70;99.90;;;;;;4977138;28;20175;-80
2022/12/30 04:59:42;;;;;;;6.13;1.20;;;7.70;99.90;;;;;;4976168;28;20348;-79
2022/12/30 05:02:07;;;;;;;5.83;2.30;;;7.70;99.90;;;;;;4978234;28;20603;-80
2022/12/30 05:04:33;;;;;;;6.90;1.60;;;7.70;99.90;;;;;;4994616;28;20206;-80
2022/12/30 05:06:59;;;;;;;5.50;2.27;;;7.70;99.90;;;;;;4994983;28;20241;-80
2022/12/30 05:09:24;;;;;;;3.33;1.00;;;7.70;99.90;;;;;;4973728;28;20171;-81
2022/12/30 05:11:50;;;;;;;5.47;1.30;;;7.70;99.90;;;;;;4951973;28;20707;-81
2022/12/30 05:14:16;;;;;;;5.43;1.37;;;7.80;99.90;;;;;;4971356;28;20613;-80
2022/12/30 05:16:42;;;;;;;9.60;2.53;;;7.80;99.90;;;;;;4977723;28;20267;-80
2022/12/30 05:19:09;;;;;;;6.73;1.63;;;7.80;99.90;;;;;;4957065;28;20184;-80
2022/12/30 05:21:34;;;;;;;8.00;1.63;;;7.90;99.90;;;;;;4956494;28;20207;-80
2022/12/30 05:26:44;;;;;;;6.75;1.73;;;7.90;99.90;;;;;;4973618;28;20183;-80
2022/12/30 05:29:10;;;;;;;6.90;1.40;;;7.90;99.90;;;;;;4979469;28;20541;-80
2022/12/30 05:31:35;;;;;;;6.13;1.50;;;7.90;99.90;;;;;;4962536;28;20179;-81
2022/12/30 05:34:01;;;;;;;8.50;1.80;;;7.90;99.90;;;;;;4943527;28;20676;-80
2022/12/30 05:36:27;;;;;;;7.90;1.30;;;7.90;99.90;;;;;;4958692;28;21190;-80
2022/12/30 05:38:52;;;;;;;7.70;1.40;;;7.90;99.90;;;;;;4977762;28;20722;-80
2022/12/30 05:41:18;;;;;;;4.33;1.10;;;7.90;99.90;;;;;;4984376;28;20179;-80
2022/12/30 05:43:44;;;;;;;6.20;1.63;;;7.90;99.90;;;;;;4969419;28;20304;-80
2022/12/30 05:46:10;;;;;;;6.90;1.63;;;7.90;99.90;;;;;;4995544;28;20171;-80
2022/12/30 05:48:35;;;;;;;9.80;1.80;;;7.90;99.90;;;;;;4996355;28;20203;-80
2022/12/30 05:51:01;;;;;;;9.93;1.77;;;8.00;99.90;;;;;;4980491;28;20179;-81
2022/12/30 05:53:27;;;;;;;3.87;1.10;;;8.00;99.90;;;;;;4997293;28;20594;-81
2022/12/30 05:55:53;;;;;;;8.40;1.60;;;7.90;99.90;;;;;;4996633;28;20496;-81
2022/12/30 05:58:19;;;;;;;4.10;1.27;;;7.90;99.90;;;;;;4996994;28;20172;-81
2022/12/30 06:00:44;;;;;;;5.82;1.30;;;7.90;99.90;;;;;;4996851;28;20199;-81
2022/12/30 06:03:10;;;;;;;9.23;1.70;;;7.90;99.90;;;;;;4978920;28;20192;-81
2022/12/30 06:05:36;;;;;;;5.93;1.93;;;7.80;99.90;;;;;;4996974;28;20179;-81
2022/12/30 06:08:02;;;;;;;8.20;1.40;;;7.80;99.90;;;;;;4980715;28;20183;-81
2022/12/30 06:10:28;;;;;;;5.13;1.60;;;7.80;99.90;;;;;;4992484;28;20595;-81
2022/12/30 06:12:54;;;;;;;4.13;1.73;;;7.80;99.90;;;;;;4977804;28;20188;-81
2022/12/30 06:15:19;;;;;;;9.40;1.97;;;7.80;99.90;;;;;;4988238;28;20475;-82
2022/12/30 06:17:45;;;;;;;6.70;1.50;;;7.80;99.90;;;;;;5014577;28;20183;-81
2022/12/30 06:20:11;;;;;;;4.80;1.73;;;7.80;99.90;;;;;;5013994;28;20274;-81
2022/12/30 06:22:36;;;;;;;8.90;2.00;;;7.80;99.90;;;;;;4995656;28;20183;-81
2022/12/30 06:25:02;;;;;;;3.80;1.83;;;7.80;99.90;;;;;;4992132;28;20460;-81
2022/12/30 06:27:28;;;;;;;4.97;1.27;;;7.70;99.90;;;;;;4981523;28;20175;-82
2022/12/30 06:29:53;;;;;;;9.37;2.57;;;7.80;99.90;;;;;;4999202;28;20162;-81
2022/12/30 06:32:19;;;;;;;4.00;1.80;;;7.80;99.90;;;;;;5015976;28;20179;-81
2022/12/30 06:34:45;;;;;;;8.20;1.37;;;7.70;99.90;;;;;;5015064;28;20237;-81
2022/12/30 06:37:11;;;;;;;5.33;1.70;;;7.80;99.90;;;;;;4999625;28;20182;-81
2022/12/30 06:39:37;;;;;;;5.88;1.55;;;7.80;99.90;;;;;;5031683;28;20237;-81
2022/12/30 06:42:03;;;;;;;5.73;1.83;;;7.80;99.90;;;;;;4995275;28;20167;-81
2022/12/30 06:44:28;;;;;;;4.80;1.80;;;7.80;99.90;;;;;;5010276;28;20195;-81
2022/12/30 06:46:54;;;;;;;8.47;1.43;;;7.80;99.90;;;;;;5010557;28;20181;-81
2022/12/30 06:49:20;;;;;;;4.73;1.60;;;7.80;99.90;;;;;;4991286;28;20190;-82
2022/12/30 06:51:45;;;;;;;5.57;1.63;;;7.80;99.90;;;;;;4987941;28;20179;-82
2022/12/30 06:54:11;;;;;;;6.50;1.30;;;7.80;99.90;;;;;;5006125;28;20199;-82
2022/12/30 06:56:37;;;;;;;4.07;1.40;;;7.80;99.90;;;;;;4967115;28;20171;-82
2022/12/30 06:59:02;;;;;;;7.30;1.57;;;7.90;99.90;;;;;;4986646;28;20532;-82
2022/12/30 07:01:28;;;;;;;3.57;1.33;;;7.90;99.90;;;;;;5000858;28;20241;-81
2022/12/30 07:03:54;;;;;;;7.17;1.20;;;7.90;99.90;;;;;;5002065;28;20195;-81
2022/12/30 07:06:19;;;;;;;5.17;1.60;;;7.90;99.90;;;;;;5011814;28;20202;-82
2022/12/30 07:08:45;;;;;;;4.60;1.30;;;7.90;99.90;;;;;;4990769;28;20198;-81
2022/12/30 07:11:11;;;;;;;4.90;1.73;;;7.90;99.90;;;;;;4991737;28;20182;-81
2022/12/30 07:13:36;;;;;;;6.77;1.40;;;7.90;99.90;;;;;;4991356;28;20191;-81
2022/12/30 07:16:02;;;;;;;9.53;1.73;;;7.90;99.90;;;;;;5009402;28;20198;-82
2022/12/30 07:18:28;;;;;;;10.40;1.50;;;7.90;99.90;;;;;;4991988;28;20203;-82
2022/12/30 07:20:53;;;;;;;6.87;2.00;;;7.90;99.90;;;;;;4960004;28;20434;-82
2022/12/30 07:23:20;;;;;;;3.50;1.00;;;7.90;99.90;;;;;;5003582;28;20191;-81
2022/12/30 07:25:46;;;;;;;5.45;1.42;;;7.90;99.90;;;;;;4992739;28;20179;-82
2022/12/30 07:28:12;;;;;;;5.72;1.60;;;8.00;99.90;;;;;;5014026;28;20179;-81
2022/12/30 07:30:40;;;;;;;8.40;1.20;;;8.00;99.90;;;;;;4994527;28;20193;-82
2022/12/30 07:33:05;;;;;;;5.13;1.20;;;8.00;99.90;;;;;;5010960;28;20646;-82
2022/12/30 07:35:31;;;;;;;3.33;1.23;;;8.10;99.90;;;;;;5010411;28;20179;-81
2022/12/30 07:37:57;;;;;;;4.87;1.30;;;8.10;99.90;;;;;;4991446;28;20883;-82
2022/12/30 07:40:23;;;;;;;5.17;1.30;;;8.10;99.90;;;;;;5007808;28;20210;-81
2022/12/30 07:42:49;;;;;;;8.20;1.40;;;8.10;99.90;;;;;;5006473;28;20592;-82
2022/12/30 07:45:14;;;;;;;5.70;2.07;;;8.10;99.90;;;;;;4990202;28;20582;-81
2022/12/30 07:47:43;;;;;;;6.53;2.07;;;8.10;99.90;;;;;;4991993;28;20269;-82
2022/12/30 07:50:10;;;;;;;7.20;1.77;;;8.10;99.90;;;;;;4990784;28;20183;-82
2022/12/30 07:52:36;;;;;;;2.75;1.00;;;8.10;99.90;;;;;;5008039;28;20174;-82
2022/12/30 07:55:02;;;;;;;5.63;2.00;;;8.10;99.90;;;;;;4994104;28;20182;-81
2022/12/30 07:57:28;;;;;;;7.18;1.48;;;8.10;99.90;;;;;;5011864;28;20183;-82
2022/12/30 07:59:55;;;;;;;4.20;1.17;;;8.20;99.90;;;;;;5006108;28;20210;-82
2022/12/30 08:02:21;;;;;;;7.45;1.58;;;8.20;99.90;;;;;;4981469;28;20740;-81
2022/12/30 08:04:47;;;;;;;7.47;1.52;;;8.20;99.90;;;;;;4990529;28;20199;-82
2022/12/30 08:07:14;;;;;;;2.83;1.20;;;8.20;99.90;;;;;;4982028;28;20175;-78
2022/12/30 08:09:40;;;;;;;3.00;1.20;;;8.30;99.90;;;;;;4981182;28;21238;-78
2022/12/30 08:12:05;;;;;;;6.30;2.10;;;8.30;99.90;;;;;;4954429;28;20179;-77
2022/12/30 08:14:31;;;;;;;5.27;1.67;;;8.40;99.90;;;;;;4971973;28;20203;-77
2022/12/30 08:16:57;;;;;;;7.03;1.03;;;8.40;99.90;;;;;;4972293;28;20667;-77
2022/12/30 08:19:23;;;;;;;5.50;1.40;;;8.50;99.90;;;;;;4970909;28;20204;-77
2022/12/30 08:21:48;;;;;;;5.53;2.00;;;8.60;99.90;;;;;;4970971;28;20231;-77
2022/12/30 08:24:14;;;;;;;5.90;1.30;;;8.60;99.90;;;;;;4954888;28;20196;-78
2022/12/30 08:26:40;;;;;;;3.10;1.10;;;8.70;99.90;;;;;;4970846;28;20171;-77
2022/12/30 08:29:05;;;;;;;3.67;1.00;;;8.70;99.90;;;;;;4972499;28;20230;-77
2022/12/30 08:31:31;;;;;;;4.57;2.70;;;8.80;99.90;;;;;;4954450;28;20942;-78
2022/12/30 08:33:57;;;;;;;2.70;1.03;;;8.90;99.90;;;;;;4971746;28;20199;-78
2022/12/30 08:36:27;;;;;;;3.65;0.90;;;9.00;99.90;;;;;;4970996;28;20201;-78
2022/12/30 08:38:55;;;;;;;5.22;1.00;;;9.00;99.90;;;;;;4972111;28;20175;-78
2022/12/30 08:41:31;;;;;;;4.18;1.23;;;9.10;99.90;;;;;;4971925;28;20196;-78
2022/12/30 08:43:58;;;;;;;4.82;1.20;;;9.10;99.90;;;;;;4954053;28;20291;-77
2022/12/30 08:46:26;;;;;;;4.38;1.20;;;9.20;99.90;;;;;;4972202;28;20203;-77
2022/12/30 08:48:52;;;;;;;5.18;1.02;;;9.30;99.90;;;;;;4970464;28;20218;-78
2022/12/30 08:51:18;;;;;;;3.75;1.15;;;9.40;99.90;;;;;;4971873;28;20570;-77
2022/12/30 08:53:44;;;;;;;3.70;1.17;;;9.50;99.90;;;;;;4953726;28;20808;-78
2022/12/30 08:56:14;;;;;;;6.27;1.97;;;9.50;99.90;;;;;;4970926;28;20183;-77
2022/12/30 08:58:40;;;;;;;4.15;1.42;;;9.60;99.90;;;;;;4938519;28;20238;-77
2022/12/30 09:01:14;;;;;;;3.33;0.82;;;9.60;99.90;;;;;;4971695;28;20257;-76
2022/12/30 09:03:41;;;;;;;8.63;0.93;;;9.80;99.90;;;;;;4953471;28;20226;-77
2022/12/30 09:06:08;;;;;;;4.43;1.38;;;9.90;99.90;;;;;;4971939;28;20160;-77
2022/12/30 09:08:34;;;;;;;5.15;1.10;;;9.90;99.90;;;;;;4954752;28;20629;-77
2022/12/30 09:11:09;;;;;;;4.15;0.98;;;10.10;99.90;;;;;;4971308;28;20183;-77
2022/12/30 09:13:36;;;;;;;5.05;1.80;;;10.10;99.90;;;;;;4971563;28;20554;-76
2022/12/30 09:16:04;;;;;;;5.03;1.15;;;10.20;99.90;;;;;;4971273;28;20673;-76
2022/12/30 09:18:30;;;;;;;3.47;1.10;;;10.30;99.90;;;;;;4954502;28;20179;-77
2022/12/30 09:20:55;;;;;;;4.57;1.10;;;10.30;99.90;;;;;;4953909;28;20211;-77
2022/12/30 09:23:21;;;;;;;15.40;1.57;;;10.40;99.90;;;;;;4969773;28;20206;-77
2022/12/30 09:25:47;;;;;;;4.97;1.50;;;10.40;99.90;;;;;;4973966;28;20671;-77
2022/12/30 09:28:13;;;;;;;5.50;1.90;;;10.50;99.90;;;;;;4958150;28;21165;-76
2022/12/30 09:30:39;;;;;;;5.47;1.52;;;10.50;99.90;;;;;;4975096;28;20183;-77
2022/12/30 09:33:05;;;;;;;4.40;1.00;;;10.60;99.90;;;;;;4974526;28;20192;-76
2022/12/30 09:35:30;;;;;;;5.23;1.20;;;10.70;99.90;;;;;;4975728;28;20605;-77
2022/12/30 09:37:57;;;;;;;2.38;1.00;;;10.80;99.90;;;;;;4973489;28;20187;-76
2022/12/30 09:40:48;;;;;;;6.80;1.83;;;10.80;99.90;;;;;;4974198;28;20723;-76
2022/12/30 09:43:44;;;;;;;8.73;1.52;;;10.90;99.90;;;;;;4972952;28;20195;-77
2022/12/30 09:46:44;;;;;;;3.53;1.23;;;10.90;99.90;;;;;;4972445;28;20190;-77
2022/12/30 09:49:48;;;;;;;3.45;0.93;;;11.00;99.90;;;;;;4972303;28;20183;-77
2022/12/30 09:52:21;;;;;;;4.55;1.50;;;11.00;99.90;;;;;;4972884;28;20234;-77
2022/12/30 09:54:54;;;;;;;3.03;1.13;;;11.10;99.90;;;;;;4971287;28;20223;-77
2022/12/30 09:57:31;;;;;;;5.00;2.50;;;11.10;99.90;;;;;;4956268;28;20172;-77
2022/12/30 10:00:14;;;;;;;4.47;1.58;;;11.20;99.90;;;;;;4973250;28;20195;-75
2022/12/30 10:03:31;;;;;;;3.88;0.93;;;11.20;99.90;;;;;;4971120;28;20210;-75
2022/12/30 10:06:08;;;;;;;5.25;1.05;;;11.20;99.90;;;;;;4947358;28;20195;-75
2022/12/30 10:09:11;;;;;;;4.68;1.10;;;11.20;99.90;;;;;;4975016;28;20210;-75
2022/12/30 10:11:55;;;;;;;6.85;1.23;;;11.30;99.90;;;;;;4974561;28;20178;-75
2022/12/30 10:14:42;;;;;;;3.53;1.00;;;11.20;99.90;;;;;;4990522;28;20195;-76
2022/12/30 10:17:45;;;;;;;3.38;0.90;;;11.30;99.90;;;;;;4992323;28;20627;-75
2022/12/30 10:20:38;;;;;;;6.60;1.00;;;11.30;99.90;;;;;;4976045;28;20199;-76
2022/12/30 10:23:18;;;;;;;3.95;1.33;;;11.30;99.90;;;;;;4972477;28;20210;-76
2022/12/30 10:25:58;;;;;;;2.58;0.93;;;11.30;99.90;;;;;;4958750;28;20229;-76
2022/12/30 10:28:37;;;;;;;5.68;1.40;;;11.40;99.90;;;;;;4972361;28;20572;-75
2022/12/30 10:31:07;;;;;;;5.28;1.65;;;11.40;99.90;;;;;;4971421;28;21005;-76
2022/12/30 10:33:34;;;;;;;3.90;0.90;;;11.40;99.90;;;;;;4971771;28;20191;-76
2022/12/30 10:36:28;;;;;;;5.55;1.15;;;11.50;99.90;;;;;;4969860;28;20192;-76
2022/12/30 10:39:05;;;;;;;3.13;0.90;;;11.50;99.90;;;;;;4938563;28;20184;-76
2022/12/30 10:41:59;;;;;;;3.30;1.00;;;11.50;99.90;;;;;;4972293;28;20190;-76
2022/12/30 10:44:51;;;;;;;4.53;1.30;;;11.50;99.90;;;;;;4954222;28;20202;-76
2022/12/30 10:47:30;;;;;;;2.60;1.33;;;11.50;99.90;;;;;;4972458;28;20230;-76
2022/12/30 10:50:13;;;;;;;3.33;1.20;;;11.50;99.90;;;;;;4972480;28;20187;-76
2022/12/30 10:52:39;;;;;;;4.13;1.45;;;11.50;99.90;;;;;;4970857;28;20696;-76
2022/12/30 10:55:24;;;;;;;4.57;1.00;;;11.60;99.90;;;;;;4971861;28;20254;-76
2022/12/30 10:57:57;;;;;;;4.38;0.90;;;11.60;99.90;;;;;;4975324;28;20176;-76
2022/12/30 11:00:23;;;;;;;3.15;1.00;;;11.60;99.90;;;;;;4954722;28;20204;-76
2022/12/30 11:03:04;;;;;;;5.77;1.30;;;11.70;99.90;;;;;;4954208;28;20182;-76
2022/12/30 11:05:38;;;;;;;3.15;1.25;;;11.60;99.90;;;;;;4954730;28;20583;-76
2022/12/30 11:08:08;;;;;;;4.32;1.20;;;11.60;99.90;;;;;;4954581;28;20171;-76
2022/12/30 11:10:33;;;;;;;4.65;1.40;;;11.70;99.90;;;;;;4972220;28;20544;-76
2022/12/30 11:15:54;;;;;;;3.38;1.10;;;11.70;99.90;;;;;;4954838;28;20595;-76
2022/12/30 11:18:25;;;;;;;4.57;1.20;;;11.70;99.90;;;;;;4971763;28;20186;-76
2022/12/30 11:20:54;;;;;;;3.55;1.60;;;11.70;99.90;;;;;;4954566;28;20219;-76
2022/12/30 11:23:40;;;;;;;3.33;1.15;;;11.70;99.90;;;;;;4953327;28;20282;-76
2022/12/30 11:26:09;;;;;;;4.10;1.20;;;11.70;99.90;;;;;;4971786;28;20222;-76
2022/12/30 11:29:00;;;;;;;4.40;1.73;;;11.70;99.90;;;;;;4954015;28;20175;-76
2022/12/30 11:31:33;;;;;;;3.60;1.00;;;11.60;99.90;;;;;;4970167;28;20176;-76
2022/12/30 11:34:02;;;;;;;5.78;1.20;;;11.70;99.90;;;;;;4971032;28;20199;-76
2022/12/30 11:36:28;;;;;;;5.53;1.30;;;11.70;99.90;;;;;;4954346;28;20229;-76
2022/12/30 11:38:56;;;;;;;2.53;0.80;;;11.70;99.90;;;;;;4971263;28;20534;-76
2022/12/30 11:41:29;;;;;;;3.35;1.15;;;11.70;99.90;;;;;;4953755;28;20223;-76
2022/12/30 11:44:00;;;;;;;5.15;1.40;;;11.70;99.90;;;;;;4953338;28;20245;-76
2022/12/30 11:46:32;;;;;;;5.80;1.65;;;11.70;99.90;;;;;;4970045;28;20230;-76
2022/12/30 11:49:17;;;;;;;7.32;2.63;;;11.70;99.90;;;;;;4979250;28;20175;-76
2022/12/30 11:51:48;;;;;;;10.73;3.45;;;11.70;99.90;;;;;;4975094;28;20496;-77
2022/12/30 11:54:17;;;;;;;6.07;2.63;;;11.70;99.90;;;;;;4986775;28;20195;-76
2022/12/30 11:57:06;;;;;;;8.30;2.17;;;11.70;99.90;;;;;;4972786;28;20213;-77
2022/12/30 11:59:36;;;;;;;5.93;1.20;;;11.60;99.90;;;;;;4989392;28;20547;-77
2022/12/30 12:02:20;;;;;;;3.28;1.42;;;11.70;99.90;;;;;;4972885;28;20178;-77
2022/12/30 12:04:46;;;;;;;3.17;1.60;;;11.70;99.90;;;;;;4990002;28;20557;-76
2022/12/30 12:07:17;;;;;;;4.37;1.40;;;11.70;99.90;;;;;;4990981;28;20174;-76
2022/12/30 12:09:59;;;;;;;6.65;1.70;;;11.60;99.90;;;;;;4990857;28;20531;-76
2022/12/30 12:12:29;;;;;;;5.30;1.70;;;11.60;99.90;;;;;;4971192;28;20191;-76
2022/12/30 12:15:05;;;;;;;5.03;1.48;;;11.60;99.90;;;;;;4970558;28;20250;-76
2022/12/30 12:17:44;;;;;;;7.65;1.85;;;11.60;99.90;;;;;;4958496;28;20218;-76
2022/12/30 12:20:28;;;;;;;4.05;1.08;;;11.50;99.90;;;;;;4953459;28;20239;-76
2022/12/30 12:23:06;;;;;;;5.13;1.83;;;11.50;99.90;;;;;;4978435;28;20199;-76
2022/12/30 12:25:38;;;;;;;8.73;1.60;;;11.60;99.90;;;;;;4964614;28;20195;-76
2022/12/30 12:28:05;;;;;;;5.72;1.15;;;11.60;99.90;;;;;;4967579;28;20171;-76
2022/12/30 12:31:09;;;;;;;4.03;1.40;;;11.50;99.90;;;;;;4977342;28;20182;-76
2022/12/30 12:33:44;;;;;;;5.05;1.70;;;11.50;99.90;;;;;;4958356;28;20214;-76
2022/12/30 12:36:19;;;;;;;6.95;1.67;;;11.50;99.90;;;;;;4990390;28;20225;-76
2022/12/30 12:38:58;;;;;;;5.75;2.05;;;11.50;99.90;;;;;;4991722;28;20571;-76
2022/12/30 12:41:42;;;;;;;6.03;2.85;;;11.50;99.90;;;;;;4982109;28;20231;-76
2022/12/30 12:44:25;;;;;;;7.50;1.92;;;11.50;99.90;;;;;;4971601;28;20195;-76
2022/12/30 12:47:09;;;;;;;2.50;1.00;;;11.40;99.90;;;;;;4955047;28;20635;-77
2022/12/30 12:49:56;;;;;;;5.28;1.92;;;11.40;99.90;;;;;;4971051;28;20182;-77
2022/12/30 12:52:50;;;;;;;4.05;1.50;;;11.40;99.90;;;;;;4954070;28;20187;-77
2022/12/30 12:55:25;;;;;;;4.25;1.50;;;11.50;99.90;;;;;;4971609;28;20214;-76
2022/12/30 12:57:53;;;;;;;4.07;1.20;;;11.50;99.90;;;;;;4972739;28;20179;-76
2022/12/30 13:00:22;;;;;;;4.22;0.90;;;11.50;99.90;;;;;;4958629;28;20204;-77
2022/12/30 13:03:29;;;;;;;3.17;1.52;;;11.50;99.90;;;;;;4958469;28;20190;-77
2022/12/30 13:06:20;;;;;;;6.53;3.08;;;11.50;99.90;;;;;;4950919;28;20219;-77
2022/12/30 13:09:24;;;;;;;8.70;2.83;;;11.50;99.90;;;;;;4990841;28;20178;-77
2022/12/30 13:12:11;;;;;;;5.03;2.35;;;11.50;99.90;;;;;;4935411;29;20176;-77
2022/12/30 13:14:49;;;;;;;3.60;1.80;;;11.40;99.90;;;;;;4957102;28;20207;-76
2022/12/30 13:17:31;;;;;;;4.63;2.15;;;11.50;99.90;;;;;;4958758;28;20177;-76
2022/12/30 13:20:02;;;;;;;6.30;2.97;;;11.50;99.90;;;;;;4958046;28;20214;-77
2022/12/30 13:22:34;;;;;;;4.53;2.88;;;11.50;99.90;;;;;;4975837;28;20168;-77
2022/12/30 13:25:01;;;;;;;4.63;2.70;;;11.50;99.90;;;;;;4970981;28;20214;-76
2022/12/30 13:27:31;;;;;;;4.32;2.42;;;11.50;99.90;;;;;;4958877;28;20171;-77
2022/12/30 13:29:59;;;;;;;5.30;2.33;;;11.50;99.90;;;;;;4976167;28;20179;-77
2022/12/30 13:32:46;;;;;;;5.80;3.35;;;11.50;99.90;;;;;;4980538;28;20179;-76
2022/12/30 13:35:41;;;;;;;4.25;1.92;;;11.40;99.90;;;;;;4985912;28;20198;-76
2022/12/30 13:38:28;;;;;;;4.15;2.50;;;11.20;99.90;;;;;;4976824;28;20175;-75
2022/12/30 13:41:21;;;;;;;9.35;2.35;;;11.20;99.90;;;;;;4976278;28;20223;-76
2022/12/30 13:43:53;;;;;;;10.20;4.20;;;10.90;99.90;;;;;;4959652;28;20195;-76
2022/12/30 13:46:22;;;;;;;8.82;3.70;;;10.70;99.90;;;;;;4975965;28;20175;-76
2022/12/30 13:48:56;;;;;;;8.52;2.55;;;10.60;99.90;;;;;;4994171;28;20226;-76
2022/12/30 13:51:24;;;;;;;3.60;1.63;;;10.50;99.90;;;;;;4985874;28;20181;-76
2022/12/30 13:53:56;;;;;;;4.57;1.50;;;10.30;99.90;;;;;;4969601;28;20303;-77
2022/12/30 13:56:33;;;;;;;5.80;1.25;;;10.20;99.90;;;;;;4958029;28;20236;-77
2022/12/30 13:58:59;;;;;;;4.53;1.42;;;10.10;99.90;;;;;;4973867;28;20191;-77
2022/12/30 14:01:31;;;;;;;8.32;2.40;;;10.00;99.90;;;;;;4957684;28;20215;-78
2022/12/30 14:04:12;;;;;;;3.55;1.85;;;9.90;99.90;;;;;;4974149;28;20210;-78
2022/12/30 14:06:48;;;;;;;6.63;2.33;;;9.80;99.90;;;;;;4957510;28;20227;-77
2022/12/30 14:09:18;;;;;;;4.78;2.00;;;9.70;99.90;;;;;;4973888;28;20176;-77
2022/12/30 14:12:03;;;;;;;6.75;2.50;;;9.70;99.90;;;;;;4973033;28;20270;-78